createdAt,value
2023-05-09T00:01:06.586Z,20.50
2023-05-09T00:03:33.360Z,19.10
2023-05-09T00:06:00.062Z,21.20
2023-05-09T00:08:26.829Z,20.10
2023-05-09T00:10:53.823Z,19.40
2023-05-09T00:13:20.974Z,18.40
2023-05-09T00:15:48.374Z,24.60
2023-05-09T00:18:15.483Z,19.90
2023-05-09T00:20:42.619Z,18.00
2023-05-09T00:23:09.523Z,22.00
2023-05-09T00:25:36.520Z,23.50
2023-05-09T00:28:03.349Z,18.60
2023-05-09T00:30:30.910Z,18.10
2023-05-09T00:32:57.889Z,22.10
2023-05-09T00:35:24.745Z,20.80
2023-05-09T00:37:51.514Z,19.60
2023-05-09T00:40:18.371Z,21.90
2023-05-09T00:42:45.706Z,22.60
2023-05-09T00:45:12.760Z,18.50
2023-05-09T00:47:39.962Z,21.90
2023-05-09T00:50:07.494Z,19.70
2023-05-09T00:52:34.910Z,20.10
2023-05-09T00:55:03.010Z,22.70
2023-05-09T00:57:29.754Z,19.70
2023-05-09T00:59:56.638Z,23.10
2023-05-09T01:02:23.987Z,18.20
2023-05-09T01:04:51.285Z,20.90
2023-05-09T01:07:36.843Z,18.80
2023-05-09T01:10:21.541Z,18.50
2023-05-09T01:13:13.434Z,21.00
2023-05-09T01:16:11.947Z,19.20
2023-05-09T01:18:45.421Z,22.00
2023-05-09T01:21:17.000Z,20.30
2023-05-09T01:23:44.313Z,16.90
2023-05-09T01:26:19.845Z,18.90
2023-05-09T01:29:17.442Z,21.30
2023-05-09T01:31:46.768Z,18.20
2023-05-09T01:34:16.879Z,16.60
2023-05-09T01:36:44.334Z,17.90
2023-05-09T01:39:13.450Z,17.10
2023-05-09T01:41:40.637Z,18.90
2023-05-09T01:44:11.702Z,16.80
2023-05-09T01:46:39.937Z,17.20
2023-05-09T01:49:09.504Z,21.80
2023-05-09T01:51:39.897Z,16.30
2023-05-09T01:54:08.207Z,17.80
2023-05-09T01:56:38.259Z,21.00
2023-05-09T01:59:07.660Z,19.00
2023-05-09T02:01:35.917Z,22.50
2023-05-09T02:04:04.609Z,19.00
2023-05-09T02:06:32.643Z,22.30
2023-05-09T02:08:59.562Z,18.60
2023-05-09T02:11:26.399Z,18.60
2023-05-09T02:13:53.243Z,18.60
2023-05-09T02:16:21.198Z,21.00
2023-05-09T02:18:48.727Z,17.90
2023-05-09T02:21:15.664Z,19.00
2023-05-09T02:23:42.629Z,16.30
2023-05-09T02:26:09.397Z,20.10
2023-05-09T02:28:37.883Z,17.40
2023-05-09T02:31:07.536Z,17.70
2023-05-09T02:33:37.482Z,16.90
2023-05-09T02:36:06.128Z,17.20
2023-05-09T02:38:33.877Z,19.20
2023-05-09T02:41:02.482Z,19.90
2023-05-09T02:43:29.231Z,17.70
2023-05-09T02:45:56.033Z,16.40
2023-05-09T02:48:23.410Z,16.80
2023-05-09T02:50:50.214Z,15.30
2023-05-09T02:53:17.009Z,14.60
2023-05-09T02:55:43.934Z,19.20
2023-05-09T02:58:14.842Z,13.90
2023-05-09T03:00:43.249Z,16.70
2023-05-09T03:03:10.999Z,14.30
2023-05-09T03:05:37.915Z,17.00
2023-05-09T03:08:05.195Z,16.10
2023-05-09T03:10:32.778Z,12.70
2023-05-09T03:12:59.596Z,13.30
2023-05-09T03:15:27.437Z,14.70
2023-05-09T03:17:54.657Z,15.80
2023-05-09T03:20:21.934Z,27.90
2023-05-09T03:22:49.613Z,24.00
2023-05-09T03:25:17.057Z,21.00
2023-05-09T03:27:44.990Z,21.50
2023-05-09T03:30:14.585Z,14.00
2023-05-09T03:32:42.463Z,15.40
2023-05-09T03:35:09.315Z,16.00
2023-05-09T03:37:36.181Z,20.80
2023-05-09T03:40:04.037Z,16.00
2023-05-09T03:42:32.296Z,17.70
2023-05-09T03:45:00.591Z,22.60
2023-05-09T03:47:28.913Z,19.80
2023-05-09T03:49:56.729Z,19.60
2023-05-09T03:52:24.108Z,17.70
2023-05-09T03:54:51.033Z,15.80
2023-05-09T03:57:17.894Z,17.20
2023-05-09T03:59:45.109Z,15.40
2023-05-09T04:02:14.644Z,16.10
2023-05-09T04:04:41.591Z,20.50
2023-05-09T04:07:09.198Z,17.30
2023-05-09T04:09:36.464Z,18.40
2023-05-09T04:12:03.384Z,20.60
2023-05-09T04:14:30.797Z,20.20
2023-05-09T04:16:57.842Z,17.90
2023-05-09T04:19:25.852Z,18.90
2023-05-09T04:21:53.616Z,21.00
2023-05-09T04:24:20.759Z,19.10
2023-05-09T04:26:48.522Z,19.30
2023-05-09T04:29:18.284Z,18.00
2023-05-09T04:31:49.507Z,15.40
2023-05-09T04:34:16.663Z,15.80
2023-05-09T04:36:44.981Z,19.40
2023-05-09T04:39:12.965Z,15.20
2023-05-09T04:41:44.615Z,17.80
2023-05-09T04:44:13.974Z,18.50
2023-05-09T04:46:40.930Z,15.90
2023-05-09T04:49:07.752Z,20.20
2023-05-09T04:51:34.589Z,19.30
2023-05-09T04:54:01.502Z,14.70
2023-05-09T04:56:31.193Z,14.80
2023-05-09T04:59:15.935Z,14.80
2023-05-09T05:01:43.580Z,14.20
2023-05-09T05:04:10.787Z,15.30
2023-05-09T05:06:37.889Z,8.90
2023-05-09T05:09:05.167Z,11.20
2023-05-09T05:11:31.950Z,12.50
2023-05-09T05:13:59.072Z,12.70
2023-05-09T05:16:26.708Z,16.00
2023-05-09T05:18:53.515Z,11.90
2023-05-09T05:21:20.502Z,11.00
2023-05-09T05:23:47.375Z,12.20
2023-05-09T05:26:14.309Z,12.90
2023-05-09T05:28:41.355Z,12.30
2023-05-09T05:31:08.095Z,11.30
2023-05-09T05:33:34.912Z,13.00
2023-05-09T05:36:02.212Z,16.00
2023-05-09T05:38:29.316Z,9.40
2023-05-09T05:40:56.668Z,9.50
2023-05-09T05:43:23.875Z,10.60
2023-05-09T05:45:51.211Z,9.20
2023-05-09T05:48:19.618Z,10.50
2023-05-09T05:50:46.755Z,10.00
2023-05-09T05:53:14.655Z,8.70
2023-05-09T05:55:41.903Z,7.10
2023-05-09T05:58:08.703Z,9.30
2023-05-09T06:00:36.299Z,8.90
2023-05-09T06:03:03.715Z,7.20
2023-05-09T06:05:42.625Z,6.20
2023-05-09T06:08:09.499Z,6.20
2023-05-09T06:10:36.342Z,6.00
2023-05-09T06:13:03.126Z,7.40
2023-05-09T06:15:30.177Z,8.40
2023-05-09T06:17:57.147Z,8.10
2023-05-09T06:20:23.916Z,5.50
2023-05-09T06:22:50.867Z,7.30
2023-05-09T06:25:19.086Z,5.80
2023-05-09T06:27:45.960Z,9.20
2023-05-09T06:30:24.742Z,7.50
2023-05-09T06:32:52.323Z,9.30
2023-05-09T06:35:19.197Z,6.30
2023-05-09T06:37:48.374Z,4.30
2023-05-09T06:40:15.900Z,4.70
2023-05-09T06:42:42.673Z,6.50
2023-05-09T06:45:09.865Z,6.10
2023-05-09T06:47:36.683Z,8.40
2023-05-09T06:50:03.831Z,5.80
2023-05-09T06:52:30.569Z,5.50
2023-05-09T06:54:57.388Z,6.30
2023-05-09T06:57:24.279Z,5.70
2023-05-09T06:59:52.087Z,6.60
2023-05-09T07:02:18.856Z,8.30
2023-05-09T07:04:48.192Z,6.60
2023-05-09T07:07:15.456Z,4.30
2023-05-09T07:09:42.483Z,5.40
2023-05-09T07:12:10.041Z,8.80
2023-05-09T07:14:36.885Z,5.80
2023-05-09T07:17:18.747Z,5.70
2023-05-09T07:19:52.044Z,7.30
2023-05-09T07:22:19.224Z,8.20
2023-05-09T07:24:46.597Z,5.20
2023-05-09T07:27:13.749Z,6.10
2023-05-09T07:29:40.623Z,6.40
2023-05-09T07:32:07.498Z,8.70
2023-05-09T07:34:34.621Z,7.80
2023-05-09T07:37:01.521Z,9.50
2023-05-09T07:39:28.270Z,4.60
2023-05-09T07:41:55.240Z,6.70
2023-05-09T07:44:22.782Z,7.30
2023-05-09T07:46:49.850Z,7.60
2023-05-09T07:49:16.694Z,5.20
2023-05-09T07:51:43.528Z,4.70
2023-05-09T07:54:10.392Z,6.10
2023-05-09T07:56:37.301Z,9.80
2023-05-09T07:59:05.563Z,6.20
2023-05-09T08:01:32.449Z,6.00
2023-05-09T08:03:59.438Z,4.80
2023-05-09T08:06:26.636Z,5.80
2023-05-09T08:08:53.451Z,9.90
2023-05-09T08:11:20.261Z,5.40
2023-05-09T08:13:48.308Z,5.50
2023-05-09T08:16:17.440Z,4.80
2023-05-09T08:18:44.752Z,6.30
2023-05-09T08:21:11.537Z,3.70
2023-05-09T08:23:38.955Z,10.40
2023-05-09T08:26:05.963Z,3.20
2023-05-09T08:28:32.783Z,5.90
2023-05-09T08:30:59.760Z,8.30
2023-05-09T08:33:26.644Z,6.10
2023-05-09T08:35:53.963Z,6.10
2023-05-09T08:38:24.499Z,6.90
2023-05-09T08:40:51.325Z,5.60
2023-05-09T08:43:20.310Z,5.80
2023-05-09T08:45:52.131Z,10.20
2023-05-09T08:48:19.631Z,9.00
2023-05-09T08:50:47.314Z,7.40
2023-05-09T08:53:14.909Z,7.00
2023-05-09T08:55:41.847Z,6.50
2023-05-09T08:58:09.779Z,5.20
2023-05-09T09:00:38.799Z,5.90
2023-05-09T09:03:06.917Z,6.80
2023-05-09T09:05:41.883Z,5.30
2023-05-09T09:08:10.992Z,7.00
2023-05-09T09:10:47.706Z,5.10
2023-05-09T09:13:16.894Z,2.90
2023-05-09T09:15:46.450Z,8.50
2023-05-09T09:18:20.954Z,6.30
2023-05-09T09:20:52.205Z,5.50
2023-05-09T09:23:21.329Z,3.00
2023-05-09T09:25:48.891Z,7.60
2023-05-09T09:28:15.790Z,4.30
2023-05-09T09:30:46.043Z,6.00
2023-05-09T09:33:22.668Z,5.40
2023-05-09T09:35:51.118Z,5.50
2023-05-09T09:38:19.723Z,6.10
2023-05-09T09:40:58.596Z,4.60
2023-05-09T09:43:30.494Z,6.50
2023-05-09T09:46:01.196Z,5.30
2023-05-09T09:48:33.793Z,5.60
2023-05-09T09:51:11.988Z,5.30
2023-05-09T09:53:39.703Z,6.50
2023-05-09T09:56:07.039Z,7.20
2023-05-09T09:58:34.270Z,4.60
2023-05-09T10:01:06.417Z,4.70
2023-05-09T10:03:38.297Z,7.10
2023-05-09T10:06:05.800Z,5.00
2023-05-09T10:08:32.797Z,3.30
2023-05-09T10:10:59.997Z,5.10
2023-05-09T10:13:27.492Z,3.60
2023-05-09T10:15:55.893Z,4.50
2023-05-09T10:18:28.875Z,4.10
2023-05-09T10:21:01.131Z,6.50
2023-05-09T10:23:30.917Z,5.20
2023-05-09T10:26:05.095Z,6.00
2023-05-09T10:28:35.258Z,4.00
2023-05-09T10:31:33.107Z,2.80
2023-05-09T10:34:05.062Z,5.30
2023-05-09T10:36:32.705Z,4.50
2023-05-09T10:39:00.164Z,5.00
2023-05-09T10:41:27.069Z,7.10
2023-05-09T10:43:57.313Z,10.60
2023-05-09T10:46:25.226Z,5.40
2023-05-09T10:48:52.631Z,3.60
2023-05-09T10:51:19.698Z,4.80
2023-05-09T10:53:48.753Z,4.00
2023-05-09T10:56:25.169Z,5.90
2023-05-09T10:58:51.926Z,4.00
2023-05-09T11:01:37.226Z,5.50
2023-05-09T11:04:14.744Z,3.20
2023-05-09T11:06:43.981Z,5.40
2023-05-09T11:09:32.922Z,5.90
2023-05-09T11:12:02.343Z,5.20
2023-05-09T11:14:31.117Z,4.70
2023-05-09T11:16:59.804Z,5.60
2023-05-09T11:19:45.648Z,6.90
2023-05-09T11:22:15.778Z,5.30
2023-05-09T11:24:51.850Z,3.70
2023-05-09T11:27:28.415Z,4.50
2023-05-09T11:29:58.099Z,5.40
2023-05-09T11:32:31.852Z,3.00
2023-05-09T11:35:10.004Z,2.20
2023-05-09T11:37:52.596Z,5.00
2023-05-09T11:40:24.315Z,3.60
2023-05-09T11:42:57.758Z,3.90
2023-05-09T11:45:29.974Z,3.20
2023-05-09T11:47:57.693Z,2.20
2023-05-09T11:50:25.231Z,4.20
2023-05-09T11:52:54.167Z,2.50
2023-05-09T11:55:23.031Z,3.00
2023-05-09T11:57:52.419Z,3.20
2023-05-09T12:00:22.025Z,4.70
2023-05-09T12:02:51.115Z,5.60
2023-05-09T12:05:20.863Z,3.70
2023-05-09T12:07:48.035Z,4.10
2023-05-09T12:10:21.233Z,3.20
2023-05-09T12:12:50.190Z,3.80
2023-05-09T12:15:19.701Z,2.80
2023-05-09T12:17:50.482Z,3.00
2023-05-09T12:20:18.906Z,3.40
2023-05-09T12:22:53.756Z,3.80
2023-05-09T12:25:20.593Z,4.50
2023-05-09T12:27:47.476Z,4.10
2023-05-09T12:30:16.280Z,2.80
2023-05-09T12:32:43.932Z,2.80
2023-05-09T12:35:11.500Z,2.70
2023-05-09T12:37:39.026Z,2.10
2023-05-09T12:40:11.397Z,2.70
2023-05-09T12:42:39.092Z,3.10
2023-05-09T12:45:08.912Z,1.70
2023-05-09T12:47:37.330Z,2.70
2023-05-09T12:50:06.497Z,2.30
2023-05-09T12:52:36.777Z,2.60
2023-05-09T12:55:09.096Z,3.40
2023-05-09T12:57:36.140Z,2.40
2023-05-09T13:00:07.653Z,2.90
2023-05-09T13:02:37.056Z,3.00
2023-05-09T13:05:12.195Z,2.90
2023-05-09T13:07:41.117Z,2.90
2023-05-09T13:10:14.664Z,2.50
2023-05-09T13:15:12.722Z,2.60
2023-05-09T13:17:39.846Z,3.10
2023-05-09T13:20:07.499Z,2.60
2023-05-09T13:22:35.809Z,4.30
2023-05-09T13:25:03.412Z,1.80
2023-05-09T13:27:30.581Z,3.70
2023-05-09T13:29:57.634Z,5.40
2023-05-09T13:32:25.072Z,3.10
2023-05-09T13:34:52.901Z,3.70
2023-05-09T13:37:19.873Z,3.20
2023-05-09T13:39:46.703Z,1.80
2023-05-09T13:42:13.596Z,3.80
2023-05-09T13:44:40.402Z,1.70
2023-05-09T13:47:07.965Z,2.20
2023-05-09T13:49:35.061Z,4.50
2023-05-09T13:52:01.839Z,2.40
2023-05-09T13:54:31.372Z,4.20
2023-05-09T13:56:58.278Z,4.70
2023-05-09T13:59:25.017Z,8.30
2023-05-09T14:01:52.111Z,4.10
2023-05-09T14:04:19.158Z,7.80
2023-05-09T14:06:48.311Z,2.80
2023-05-09T14:09:15.766Z,3.80
2023-05-09T14:11:42.882Z,6.50
2023-05-09T14:14:09.628Z,4.60
2023-05-09T14:16:36.465Z,3.50
2023-05-09T14:19:03.293Z,2.50
2023-05-09T14:21:30.067Z,2.00
2023-05-09T14:23:57.513Z,3.00
2023-05-09T14:26:26.590Z,1.70
2023-05-09T14:28:54.310Z,3.00
2023-05-09T14:31:21.271Z,4.70
2023-05-09T14:33:48.109Z,4.90
2023-05-09T14:36:14.989Z,4.50
2023-05-09T14:38:43.073Z,3.50
2023-05-09T14:41:09.958Z,4.10
2023-05-09T14:43:36.983Z,2.80
2023-05-09T14:46:03.977Z,4.30
2023-05-09T14:48:30.868Z,3.80
2023-05-09T14:50:57.749Z,4.80
2023-05-09T14:53:24.689Z,2.30
2023-05-09T14:55:52.277Z,3.50
2023-05-09T14:58:19.510Z,6.20
2023-05-09T15:00:47.458Z,2.30
2023-05-09T15:03:14.652Z,2.20
2023-05-09T15:05:42.228Z,2.50
2023-05-09T15:08:09.085Z,3.00
2023-05-09T15:10:36.084Z,2.70
2023-05-09T15:13:05.796Z,2.40
2023-05-09T15:15:32.931Z,2.10
2023-05-09T15:18:01.035Z,3.90
2023-05-09T15:20:27.819Z,3.00
2023-05-09T15:22:54.641Z,4.40
2023-05-09T15:25:23.278Z,3.20
2023-05-09T15:27:51.130Z,2.00
2023-05-09T15:30:20.251Z,3.30
2023-05-09T15:32:47.212Z,3.10
2023-05-09T15:35:14.230Z,3.30
2023-05-09T15:37:41.163Z,3.00
2023-05-09T15:40:08.534Z,4.70
2023-05-09T15:42:35.936Z,1.90
2023-05-09T15:45:03.840Z,3.70
2023-05-09T15:47:31.076Z,3.60
2023-05-09T15:49:57.882Z,3.60
2023-05-09T15:52:24.720Z,2.60
2023-05-09T15:54:51.447Z,1.90
2023-05-09T15:57:18.210Z,4.10
2023-05-09T15:59:44.978Z,2.30
2023-05-09T16:04:39.011Z,2.80
2023-05-09T16:07:05.840Z,2.10
2023-05-09T16:09:32.985Z,1.80
2023-05-09T16:11:59.727Z,3.40
2023-05-09T16:14:26.618Z,4.90
2023-05-09T16:16:54.028Z,2.00
2023-05-09T16:19:21.873Z,1.80
2023-05-09T16:21:48.788Z,2.20
2023-05-09T16:24:15.559Z,3.70
2023-05-09T16:26:42.378Z,3.00
2023-05-09T16:29:10.013Z,2.70
2023-05-09T16:31:37.083Z,3.70
2023-05-09T16:34:04.033Z,2.90
2023-05-09T16:36:33.748Z,5.90
2023-05-09T16:39:02.789Z,3.30
2023-05-09T16:41:29.687Z,4.90
2023-05-09T16:43:57.498Z,4.70
2023-05-09T16:46:24.874Z,3.60
2023-05-09T16:48:52.705Z,5.30
2023-05-09T16:51:19.477Z,3.90
2023-05-09T16:53:46.349Z,6.00
2023-05-09T16:56:13.317Z,2.90
2023-05-09T16:58:40.156Z,3.90
2023-05-09T17:01:07.105Z,3.40
2023-05-09T17:03:34.318Z,2.70
2023-05-09T17:06:01.207Z,2.80
2023-05-09T17:08:27.962Z,3.10
2023-05-09T17:10:55.118Z,3.70
2023-05-09T17:13:22.100Z,3.00
2023-05-09T17:15:49.402Z,3.20
2023-05-09T17:18:22.177Z,2.60
2023-05-09T17:20:56.831Z,3.30
2023-05-09T17:23:24.484Z,3.40
2023-05-09T17:25:51.915Z,2.50
2023-05-09T17:28:18.625Z,1.90
2023-05-09T17:30:45.578Z,3.00
2023-05-09T17:33:12.354Z,5.10
2023-05-09T17:35:46.993Z,3.70
2023-05-09T17:38:14.165Z,3.20
2023-05-09T17:40:40.999Z,2.60
2023-05-09T17:43:07.726Z,4.20
2023-05-09T17:45:34.552Z,3.60
2023-05-09T17:48:02.339Z,3.30
2023-05-09T17:50:29.317Z,2.10
2023-05-09T17:52:57.069Z,4.40
2023-05-09T17:55:23.861Z,4.30
2023-05-09T17:57:50.767Z,3.40
2023-05-09T18:00:18.478Z,4.90
2023-05-09T18:02:48.278Z,3.50
2023-05-09T18:05:16.392Z,5.10
2023-05-09T18:07:43.214Z,3.90
2023-05-09T18:10:13.701Z,3.30
2023-05-09T18:12:41.002Z,3.10
2023-05-09T18:15:09.401Z,2.90
2023-05-09T18:17:36.910Z,3.70
2023-05-09T18:20:08.415Z,4.60
2023-05-09T18:22:38.646Z,4.00
2023-05-09T18:25:07.738Z,3.80
2023-05-09T18:27:35.257Z,3.30
2023-05-09T18:30:02.143Z,2.70
2023-05-09T18:32:29.987Z,4.70
2023-05-09T18:35:12.577Z,3.20
2023-05-09T18:37:39.957Z,4.30
2023-05-09T18:40:10.971Z,4.90
2023-05-09T18:42:39.380Z,4.90
2023-05-09T18:45:12.327Z,6.90
2023-05-09T18:47:39.647Z,6.00
2023-05-09T18:50:07.413Z,9.30
2023-05-09T18:52:35.583Z,6.00
2023-05-09T18:55:04.128Z,6.60
2023-05-09T18:57:31.089Z,5.70
2023-05-09T18:59:58.219Z,6.60
2023-05-09T19:02:26.555Z,5.30
2023-05-09T19:04:53.782Z,7.30
2023-05-09T19:07:23.926Z,6.20
2023-05-09T19:09:50.694Z,6.60
2023-05-09T19:12:17.794Z,3.40
2023-05-09T19:14:44.587Z,5.50
2023-05-09T19:17:12.059Z,6.50
2023-05-09T19:19:39.455Z,5.10
2023-05-09T19:22:07.490Z,6.40
2023-05-09T19:24:38.789Z,4.10
2023-05-09T19:27:07.696Z,6.30
2023-05-09T19:29:35.980Z,6.10
2023-05-09T19:32:04.123Z,6.90
2023-05-09T19:34:31.026Z,9.20
2023-05-09T19:36:57.800Z,4.90
2023-05-09T19:39:25.680Z,10.00
2023-05-09T19:41:52.517Z,10.10
2023-05-09T19:44:19.288Z,9.70
2023-05-09T19:46:46.249Z,10.50
2023-05-09T19:52:04.156Z,12.30
2023-05-09T19:54:31.181Z,13.00
2023-05-09T19:56:58.107Z,10.70
2023-05-09T19:59:24.910Z,16.50
2023-05-09T20:01:51.909Z,12.00
2023-05-09T20:04:21.830Z,14.00
2023-05-09T20:06:48.766Z,9.80
2023-05-09T20:09:18.001Z,10.30
2023-05-09T20:11:44.740Z,9.00
2023-05-09T20:14:11.572Z,8.90
2023-05-09T20:16:38.432Z,7.80
2023-05-09T20:19:08.004Z,7.40
2023-05-09T20:21:35.527Z,7.50
2023-05-09T20:24:03.494Z,7.60
2023-05-09T20:26:31.788Z,8.20
2023-05-09T20:29:01.659Z,8.30
2023-05-09T20:31:29.366Z,6.90
2023-05-09T20:33:57.974Z,6.60
2023-05-09T20:36:26.274Z,7.50
2023-05-09T20:38:53.150Z,6.20
2023-05-09T20:41:22.006Z,6.40
2023-05-09T20:43:50.187Z,6.70
2023-05-09T20:46:17.576Z,6.30
2023-05-09T20:48:44.479Z,7.50
2023-05-09T20:51:11.222Z,5.20
2023-05-09T20:53:38.004Z,7.60
2023-05-09T20:56:05.088Z,7.70
2023-05-09T20:58:33.997Z,4.40
2023-05-09T21:01:00.952Z,6.30
2023-05-09T21:03:27.969Z,5.30
2023-05-09T21:05:54.912Z,5.40
2023-05-09T21:08:23.330Z,4.90
2023-05-09T21:10:52.564Z,7.40
2023-05-09T21:13:19.571Z,7.80
2023-05-09T21:15:49.124Z,7.50
2023-05-09T21:18:15.960Z,9.10
2023-05-09T21:20:42.815Z,6.90
2023-05-09T21:23:09.652Z,5.60
2023-05-09T21:25:36.470Z,9.70
2023-05-09T21:28:03.390Z,8.10
2023-05-09T21:30:30.349Z,9.50
2023-05-09T21:32:57.118Z,11.20
2023-05-09T21:35:23.992Z,6.70
2023-05-09T21:37:52.718Z,8.30
2023-05-09T21:40:19.854Z,8.90
2023-05-09T21:42:47.882Z,7.50
2023-05-09T21:45:14.920Z,5.90
2023-05-09T21:47:41.821Z,6.50
2023-05-09T21:50:09.338Z,5.80
2023-05-09T21:52:36.165Z,8.10
2023-05-09T21:55:02.957Z,8.00
2023-05-09T21:57:29.842Z,7.40
2023-05-09T22:00:01.179Z,7.90
2023-05-09T22:02:29.876Z,6.60
2023-05-09T22:04:56.747Z,8.30
2023-05-09T22:07:23.596Z,6.70
2023-05-09T22:09:50.566Z,7.40
2023-05-09T22:12:17.386Z,8.60
2023-05-09T22:14:55.383Z,7.20
2023-05-09T22:17:24.325Z,5.90
2023-05-09T22:19:51.441Z,8.40
2023-05-09T22:22:18.235Z,7.70
2023-05-09T22:24:45.021Z,9.10
2023-05-09T22:27:11.926Z,9.40
2023-05-09T22:29:38.736Z,6.80
2023-05-09T22:32:07.801Z,9.10
2023-05-09T22:34:35.532Z,8.20
2023-05-09T22:37:02.339Z,10.10
2023-05-09T22:39:29.839Z,9.60
2023-05-09T22:41:56.821Z,5.90
2023-05-09T22:44:23.567Z,8.20
2023-05-09T22:46:50.418Z,11.50
2023-05-09T22:49:18.310Z,9.30
2023-05-09T22:51:45.180Z,8.60
2023-05-09T22:54:12.201Z,8.50
2023-05-09T22:56:39.006Z,8.00
2023-05-09T22:59:05.872Z,6.80
2023-05-09T23:01:32.740Z,7.80
2023-05-09T23:03:59.621Z,7.80
2023-05-09T23:06:26.351Z,10.30
2023-05-09T23:08:53.058Z,8.70
2023-05-09T23:11:21.041Z,11.00
2023-05-09T23:13:48.032Z,9.50
2023-05-09T23:16:16.246Z,7.50
2023-05-09T23:18:43.300Z,9.40
2023-05-09T23:21:10.034Z,7.60
2023-05-09T23:23:37.137Z,13.50
2023-05-09T23:26:03.938Z,10.20
2023-05-09T23:28:30.679Z,7.70
2023-05-09T23:30:57.415Z,9.30
2023-05-09T23:33:24.334Z,8.10
2023-05-09T23:35:51.203Z,9.20
2023-05-09T23:38:17.960Z,10.80
2023-05-09T23:40:46.148Z,11.20
2023-05-09T23:43:13.682Z,9.20
2023-05-09T23:45:40.559Z,9.20
2023-05-09T23:48:07.979Z,8.00
2023-05-09T23:50:34.776Z,9.70
2023-05-09T23:53:01.928Z,10.20
2023-05-09T23:55:29.197Z,7.20
2023-05-09T23:57:56.056Z,8.00
